createdAt,value
2019-04-21T00:01:57.797Z,27.60
2019-04-21T00:04:38.134Z,28.50
2019-04-21T00:07:16.020Z,24.10
2019-04-21T00:12:20.660Z,21.67
2019-04-21T00:14:42.404Z,23.63
2019-04-21T00:17:05.295Z,21.77
2019-04-21T00:19:33.236Z,26.23
2019-04-21T00:22:08.579Z,28.87
2019-04-21T00:24:44.428Z,22.87
2019-04-21T00:27:15.879Z,22.73
2019-04-21T00:29:49.774Z,24.27
2019-04-21T00:32:13.601Z,21.17
2019-04-21T00:34:30.430Z,24.37
2019-04-21T00:37:11.263Z,24.10
2019-04-21T00:39:55.690Z,21.70
2019-04-21T00:42:19.394Z,22.00
2019-04-21T00:44:44.893Z,25.53
2019-04-21T00:47:24.707Z,23.30
2019-04-21T00:49:56.561Z,20.53
2019-04-21T00:55:23.419Z,16.90
2019-04-21T01:00:15.492Z,26.83
2019-04-21T01:02:52.854Z,20.00
2019-04-21T01:05:19.856Z,21.63
2019-04-21T01:07:42.265Z,21.53
2019-04-21T01:10:05.294Z,18.93
2019-04-21T01:12:44.500Z,20.93
2019-04-21T01:15:18.491Z,19.30
2019-04-21T01:17:48.396Z,19.10
2019-04-21T01:20:06.714Z,20.70
2019-04-21T01:22:23.522Z,20.00
2019-04-21T01:25:03.178Z,25.37
2019-04-21T01:27:41.747Z,19.00
2019-04-21T01:30:14.392Z,17.53
2019-04-21T01:32:42.702Z,21.20
2019-04-21T01:35:16.474Z,18.50
2019-04-21T01:37:50.903Z,16.13
2019-04-21T01:40:16.579Z,21.17
2019-04-21T01:42:45.861Z,16.90
2019-04-21T01:45:12.881Z,17.50
2019-04-21T01:47:40.872Z,18.63
2019-04-21T01:50:02.858Z,15.80
2019-04-21T01:52:51.435Z,16.33
2019-04-21T01:55:26.383Z,15.30
2019-04-21T01:57:54.300Z,16.00
2019-04-21T02:00:30.176Z,14.67
2019-04-21T02:03:10.046Z,16.27
2019-04-21T02:05:40.261Z,16.50
2019-04-21T02:07:54.934Z,18.97
2019-04-21T02:10:37.237Z,15.03
2019-04-21T02:13:06.640Z,16.57
2019-04-21T02:15:36.004Z,17.60
2019-04-21T02:17:59.610Z,16.40
2019-04-21T02:20:26.885Z,19.47
2019-04-21T02:23:28.525Z,17.53
2019-04-21T02:25:52.622Z,17.80
2019-04-21T02:28:03.558Z,14.03
2019-04-21T02:30:49.252Z,18.40
2019-04-21T02:33:19.640Z,16.17
2019-04-21T02:35:52.614Z,15.10
2019-04-21T02:38:23.663Z,15.53
2019-04-21T02:40:46.702Z,19.63
2019-04-21T02:43:22.502Z,19.67
2019-04-21T02:46:02.125Z,21.83
2019-04-21T02:48:21.169Z,20.93
2019-04-21T02:53:37.465Z,18.67
2019-04-21T02:55:43.737Z,20.40
2019-04-21T02:58:32.752Z,16.07
2019-04-21T03:01:07.557Z,20.43
2019-04-21T03:03:54.995Z,19.20
2019-04-21T03:06:24.285Z,17.63
2019-04-21T03:08:58.869Z,22.00
2019-04-21T03:11:17.586Z,17.90
2019-04-21T03:13:57.676Z,18.53
2019-04-21T03:18:56.596Z,19.20
2019-04-21T03:21:20.437Z,17.83
2019-04-21T03:24:01.241Z,15.73
2019-04-21T03:28:52.300Z,18.13
2019-04-21T03:32:05.554Z,21.50
2019-04-21T03:34:34.862Z,15.70
2019-04-21T03:41:33.801Z,20.93
2019-04-21T03:46:32.546Z,15.50
2019-04-21T03:51:43.310Z,13.83
2019-04-21T03:56:59.331Z,20.07
2019-04-21T03:59:03.783Z,16.33
2019-04-21T04:01:51.025Z,21.07
2019-04-21T04:04:27.909Z,16.00
2019-04-21T04:07:04.460Z,15.47
2019-04-21T04:11:56.583Z,23.73
2019-04-21T04:14:46.172Z,29.73
2019-04-21T04:17:08.414Z,29.80
2019-04-21T04:19:34.660Z,26.87
2019-04-21T04:22:04.301Z,22.50
2019-04-21T04:24:46.813Z,21.30
2019-04-21T04:27:07.889Z,28.90
2019-04-21T04:31:55.369Z,28.23
2019-04-21T04:37:23.993Z,32.37
2019-04-21T04:39:48.712Z,50.57
2019-04-21T04:42:26.763Z,62.50
2019-04-21T04:54:55.862Z,22.77
2019-04-21T04:57:21.773Z,23.37
2019-04-21T04:59:47.816Z,21.17
2019-04-21T05:02:29.885Z,20.70
2019-04-21T05:04:57.727Z,21.33
2019-04-21T05:09:58.206Z,22.40
2019-04-21T05:12:11.249Z,22.70
2019-04-21T05:14:47.021Z,19.77
2019-04-21T05:17:26.126Z,20.10
2019-04-21T05:20:05.538Z,20.37
2019-04-21T05:24:37.738Z,20.50
2019-04-21T05:27:07.586Z,23.83
2019-04-21T05:29:53.838Z,19.73
2019-04-21T05:32:41.707Z,21.10
2019-04-21T05:35:07.692Z,17.93
2019-04-21T05:37:47.675Z,22.37
2019-04-21T05:40:19.578Z,18.40
2019-04-21T05:42:53.299Z,20.70
2019-04-21T05:45:29.488Z,21.97
2019-04-21T05:48:10.059Z,15.40
2019-04-21T05:50:23.774Z,19.33
2019-04-21T05:52:53.507Z,20.43
2019-04-21T05:55:34.336Z,23.33
2019-04-21T05:57:59.950Z,20.57
2019-04-21T06:00:39.411Z,20.80
2019-04-21T06:03:03.841Z,22.03
2019-04-21T06:05:37.822Z,20.03
2019-04-21T06:08:02.986Z,19.97
2019-04-21T06:10:38.579Z,26.80
2019-04-21T06:13:07.114Z,20.13
2019-04-21T06:15:36.156Z,17.37
2019-04-21T06:18:05.013Z,22.80
2019-04-21T06:20:35.450Z,25.33
2019-04-21T06:23:04.791Z,22.90
2019-04-21T06:28:06.366Z,18.53
2019-04-21T06:30:42.673Z,19.40
2019-04-21T06:33:11.738Z,22.63
2019-04-21T06:38:55.216Z,21.00
2019-04-21T06:41:21.557Z,21.67
2019-04-21T06:43:48.468Z,19.63
2019-04-21T06:46:21.148Z,19.30
2019-04-21T06:48:53.705Z,19.03
2019-04-21T06:51:15.023Z,19.63
2019-04-21T06:53:52.697Z,20.93
2019-04-21T06:56:13.725Z,20.90
2019-04-21T06:58:42.829Z,20.03
2019-04-21T07:01:20.817Z,19.70
2019-04-21T07:03:48.634Z,21.07
2019-04-21T07:06:18.340Z,22.90
2019-04-21T07:08:53.205Z,18.50
2019-04-21T07:11:12.447Z,20.60
2019-04-21T07:13:50.935Z,18.77
2019-04-21T07:16:19.165Z,20.83
2019-04-21T07:18:58.602Z,23.23
2019-04-21T07:21:13.761Z,21.80
2019-04-21T07:23:45.865Z,19.87
2019-04-21T07:26:19.658Z,21.77
2019-04-21T07:28:51.254Z,22.57
2019-04-21T07:31:18.995Z,21.30
2019-04-21T07:36:22.098Z,21.33
2019-04-21T07:38:45.470Z,25.77
2019-04-21T07:41:11.331Z,18.43
2019-04-21T07:43:40.973Z,20.47
2019-04-21T07:46:10.705Z,23.07
2019-04-21T07:48:49.922Z,21.33
2019-04-21T07:51:31.630Z,20.07
2019-04-21T07:54:01.769Z,21.73
2019-04-21T07:56:17.818Z,18.37
2019-04-21T08:01:33.713Z,16.90
2019-04-21T08:04:03.914Z,18.00
2019-04-21T08:06:38.835Z,18.80
2019-04-21T08:09:01.189Z,18.83
2019-04-21T08:11:28.348Z,17.27
2019-04-21T08:13:57.761Z,16.13
2019-04-21T08:16:30.840Z,17.13
2019-04-21T08:18:58.035Z,18.03
2019-04-21T08:21:37.147Z,13.87
2019-04-21T08:24:00.177Z,15.50
2019-04-21T08:26:36.954Z,16.10
2019-04-21T08:29:14.512Z,16.87
2019-04-21T08:31:38.904Z,15.27
2019-04-21T08:34:08.368Z,12.87
2019-04-21T08:36:44.778Z,15.03
2019-04-21T08:38:58.511Z,15.23
2019-04-21T08:41:31.314Z,14.43
2019-04-21T08:43:58.994Z,13.60
2019-04-21T08:46:31.747Z,16.40
2019-04-21T08:49:02.337Z,11.27
2019-04-21T08:51:33.596Z,13.10
2019-04-21T08:54:09.261Z,15.00
2019-04-21T08:56:34.114Z,14.40
2019-04-21T08:59:20.474Z,15.50
2019-04-21T09:01:55.562Z,9.97
2019-04-21T09:04:24.488Z,11.83
2019-04-21T09:09:28.748Z,9.00
2019-04-21T09:11:59.119Z,11.33
2019-04-21T09:14:33.434Z,7.77
2019-04-21T09:16:56.436Z,8.40
2019-04-21T09:22:16.854Z,9.80
2019-04-21T09:24:50.152Z,9.50
2019-04-21T09:27:15.642Z,8.00
2019-04-21T09:29:41.361Z,11.20
2019-04-21T09:32:01.876Z,6.83
2019-04-21T09:34:37.013Z,6.70
2019-04-21T09:37:16.529Z,6.13
2019-04-21T09:39:33.223Z,5.80
2019-04-21T09:42:03.250Z,6.03
2019-04-21T09:44:36.730Z,4.40
2019-04-21T09:47:03.764Z,6.93
2019-04-21T09:49:35.065Z,5.90
2019-04-21T09:52:02.246Z,4.63
2019-04-21T09:54:34.024Z,9.17
2019-04-21T09:57:05.892Z,7.13
2019-04-21T09:59:35.567Z,5.70
2019-04-21T10:02:09.754Z,4.50
2019-04-21T10:04:31.725Z,7.65
2019-04-21T10:07:00.140Z,6.13
2019-04-21T10:09:29.101Z,4.47
2019-04-21T10:11:57.533Z,6.03
2019-04-21T10:14:26.395Z,4.13
2019-04-21T10:17:13.075Z,5.30
2019-04-21T10:19:41.989Z,4.00
2019-04-21T10:22:10.620Z,5.17
2019-04-21T10:24:40.348Z,4.40
2019-04-21T10:27:10.525Z,5.07
2019-04-21T10:29:42.710Z,6.00
2019-04-21T10:32:09.329Z,4.57
2019-04-21T10:34:38.975Z,5.93
2019-04-21T10:37:07.521Z,5.63
2019-04-21T10:39:35.945Z,8.27
2019-04-21T10:42:05.587Z,5.00
2019-04-21T10:44:34.715Z,53.07
2019-04-21T10:47:04.670Z,8.67
2019-04-21T10:49:33.184Z,12.33
2019-04-21T10:52:04.592Z,8.00
2019-04-21T10:55:01.322Z,7.27
2019-04-21T10:57:06.335Z,6.33
2019-04-21T10:59:35.306Z,4.27
2019-04-21T11:02:05.539Z,17.67
2019-04-21T11:04:37.347Z,10.40
2019-04-21T11:07:13.539Z,5.30
2019-04-21T11:09:36.152Z,8.63
2019-04-21T11:12:06.143Z,6.17
2019-04-21T11:14:35.603Z,5.67
2019-04-21T11:17:04.235Z,4.70
2019-04-21T11:19:32.842Z,8.77
2019-04-21T11:22:01.298Z,23.27
2019-04-21T11:24:30.962Z,5.67
2019-04-21T11:27:00.097Z,5.23
2019-04-21T11:29:30.975Z,5.67
2019-04-21T11:32:00.870Z,5.67
2019-04-21T11:34:29.531Z,4.20
2019-04-21T11:36:58.476Z,5.43
2019-04-21T11:39:38.888Z,5.67
2019-04-21T11:41:59.594Z,8.45
2019-04-21T11:44:29.055Z,8.10
2019-04-21T11:46:58.363Z,5.75
2019-04-21T11:49:30.250Z,5.28
2019-04-21T11:51:57.043Z,5.37
2019-04-21T11:54:26.631Z,4.62
2019-04-21T11:56:55.295Z,5.37
2019-04-21T11:59:23.921Z,3.27
2019-04-21T12:01:53.638Z,5.08
2019-04-21T12:04:23.464Z,3.27
2019-04-21T12:06:54.003Z,4.53
2019-04-21T12:09:23.117Z,4.17
2019-04-21T12:11:51.681Z,4.78
2019-04-21T12:14:20.128Z,3.35
2019-04-21T12:16:48.787Z,7.57
2019-04-21T12:19:18.654Z,3.45
2019-04-21T12:22:00.423Z,4.30
2019-04-21T12:24:17.503Z,3.70
2019-04-21T12:26:47.007Z,3.47
2019-04-21T12:29:16.647Z,3.33
2019-04-21T12:32:03.419Z,4.40
2019-04-21T12:34:32.204Z,4.78
2019-04-21T12:37:01.176Z,4.08
2019-04-21T12:39:30.555Z,3.95
2019-04-21T12:42:00.522Z,2.92
2019-04-21T12:44:29.523Z,3.15
2019-04-21T12:46:58.168Z,2.87
2019-04-21T12:49:27.587Z,2.80
2019-04-21T12:51:57.584Z,4.17
2019-04-21T12:54:26.173Z,3.35
2019-04-21T12:56:55.765Z,3.10
2019-04-21T12:59:24.613Z,3.40
2019-04-21T13:01:53.199Z,3.10
2019-04-21T13:04:21.871Z,2.87
2019-04-21T13:06:51.767Z,4.30
2019-04-21T13:09:20.525Z,3.25
2019-04-21T13:11:49.529Z,4.22
2019-04-21T13:14:18.009Z,3.20
2019-04-21T13:16:47.783Z,3.33
2019-04-21T13:19:17.536Z,3.60
2019-04-21T13:21:47.927Z,3.25
2019-04-21T13:24:17.867Z,2.80
2019-04-21T13:26:52.736Z,2.67
2019-04-21T13:29:18.411Z,2.62
2019-04-21T13:31:48.075Z,7.53
2019-04-21T13:34:18.006Z,2.98
2019-04-21T13:36:47.717Z,2.90
2019-04-21T13:42:06.465Z,3.12
2019-04-21T13:44:26.834Z,2.77
2019-04-21T13:46:56.567Z,3.70
2019-04-21T13:49:25.415Z,2.83
2019-04-21T13:51:54.226Z,2.70
2019-04-21T13:54:23.257Z,2.62
2019-04-21T13:56:52.395Z,3.35
2019-04-21T13:59:22.119Z,3.00
2019-04-21T14:01:51.994Z,2.40
2019-04-21T14:04:20.594Z,4.57
2019-04-21T14:06:50.078Z,4.13
2019-04-21T14:09:19.861Z,2.63
2019-04-21T14:11:49.402Z,3.03
2019-04-21T14:14:18.677Z,2.47
2019-04-21T14:16:47.952Z,3.00
2019-04-21T14:19:17.332Z,4.53
2019-04-21T14:21:48.167Z,4.60
2019-04-21T14:24:17.224Z,3.43
2019-04-21T14:26:45.817Z,3.63
2019-04-21T14:29:15.483Z,3.37
2019-04-21T14:31:44.321Z,2.57
2019-04-21T14:34:14.236Z,3.97
2019-04-21T14:36:42.830Z,2.70
2019-04-21T14:39:12.527Z,2.80
2019-04-21T14:41:42.244Z,2.67
2019-04-21T14:44:11.117Z,3.13
2019-04-21T14:46:47.444Z,2.67
2019-04-21T14:49:17.509Z,3.97
2019-04-21T14:51:50.253Z,2.60
2019-04-21T14:54:23.010Z,2.30
2019-04-21T14:56:51.440Z,3.30
2019-04-21T14:59:21.223Z,2.40
2019-04-21T15:01:49.890Z,2.60
2019-04-21T15:04:19.348Z,5.13
2019-04-21T15:06:49.555Z,3.00
2019-04-21T15:09:18.884Z,2.90
2019-04-21T15:11:47.761Z,2.63
2019-04-21T15:14:16.238Z,2.70
2019-04-21T15:16:45.043Z,2.63
2019-04-21T15:19:14.739Z,3.50
2019-04-21T15:21:44.589Z,4.03
2019-04-21T15:24:14.244Z,4.50
2019-04-21T15:26:44.192Z,3.47
2019-04-21T15:29:12.879Z,2.70
2019-04-21T15:31:44.594Z,3.17
2019-04-21T15:34:12.996Z,3.13
2019-04-21T15:36:42.002Z,4.40
2019-04-21T15:39:29.893Z,4.30
2019-04-21T15:41:58.908Z,2.30
2019-04-21T15:44:27.490Z,2.57
2019-04-21T15:46:55.926Z,4.40
2019-04-21T15:49:28.245Z,3.00
2019-04-21T15:51:56.178Z,3.60
2019-04-21T15:54:24.802Z,3.20
2019-04-21T15:56:58.678Z,3.80
2019-04-21T15:59:32.524Z,3.40
2019-04-21T16:02:04.223Z,3.30
2019-04-21T16:04:33.051Z,2.93
2019-04-21T16:07:01.689Z,3.57
2019-04-21T16:09:31.192Z,2.87
2019-04-21T16:12:01.791Z,3.03
2019-04-21T16:14:30.343Z,4.60
2019-04-21T16:16:59.169Z,3.80
2019-04-21T16:19:29.167Z,2.90
2019-04-21T16:22:17.206Z,4.53
2019-04-21T16:24:46.063Z,2.80
2019-04-21T16:27:17.280Z,3.50
2019-04-21T16:29:45.957Z,2.00
2019-04-21T16:32:18.431Z,3.33
2019-04-21T16:34:50.708Z,3.73
2019-04-21T16:37:15.199Z,2.37
2019-04-21T16:39:45.391Z,2.37
2019-04-21T16:42:14.244Z,2.43
2019-04-21T16:44:43.021Z,2.60
2019-04-21T16:47:11.802Z,8.60
2019-04-21T16:49:40.334Z,3.50
2019-04-21T16:52:16.514Z,3.50
2019-04-21T16:54:47.745Z,2.50
2019-04-21T16:57:17.958Z,3.40
2019-04-21T16:59:48.627Z,2.30
2019-04-21T17:02:18.647Z,3.70
2019-04-21T17:04:48.596Z,4.30
2019-04-21T17:07:18.031Z,4.27
2019-04-21T17:09:48.663Z,3.23
2019-04-21T17:12:18.801Z,2.00
2019-04-21T17:15:03.065Z,7.33
2019-04-21T17:17:48.053Z,15.03
2019-04-21T17:19:51.191Z,2.73
2019-04-21T17:22:19.598Z,2.43
2019-04-21T17:24:48.498Z,2.97
2019-04-21T17:27:17.630Z,2.50
2019-04-21T17:29:46.325Z,13.97
2019-04-21T17:32:16.246Z,3.87
2019-04-21T17:34:45.820Z,2.37
2019-04-21T17:37:15.243Z,5.57
2019-04-21T17:39:44.996Z,3.70
2019-04-21T17:42:42.974Z,5.57
2019-04-21T17:45:03.685Z,3.87
2019-04-21T17:47:43.325Z,2.47
2019-04-21T17:50:09.460Z,29.97
2019-04-21T17:52:53.626Z,9.50
2019-04-21T17:55:26.192Z,5.83
2019-04-21T17:58:03.362Z,4.27
2019-04-21T18:01:05.306Z,4.10
2019-04-21T18:03:25.166Z,4.97
2019-04-21T18:05:42.022Z,3.50
2019-04-21T18:08:18.527Z,4.10
2019-04-21T18:10:42.351Z,2.90
2019-04-21T18:13:06.068Z,2.77
2019-04-21T18:15:40.301Z,2.80
2019-04-21T18:17:58.810Z,4.03
2019-04-21T18:20:30.098Z,3.23
2019-04-21T18:23:07.450Z,6.67
2019-04-21T18:25:45.256Z,5.57
2019-04-21T18:28:06.572Z,3.80
2019-04-21T18:30:42.343Z,3.40
2019-04-21T18:33:19.634Z,6.20
2019-04-21T18:35:59.971Z,7.97
2019-04-21T18:38:54.804Z,18.17
2019-04-21T18:41:05.604Z,67.80
2019-04-21T18:44:11.569Z,14.67
2019-04-21T18:46:35.973Z,15.50
2019-04-21T18:48:50.976Z,12.73
2019-04-21T18:51:20.483Z,15.83
2019-04-21T18:54:20.128Z,7.20
2019-04-21T18:56:27.662Z,9.07
2019-04-21T18:58:56.423Z,12.70
2019-04-21T19:01:28.268Z,15.20
2019-04-21T19:03:56.117Z,13.40
2019-04-21T19:06:42.415Z,14.80
2019-04-21T19:09:11.785Z,8.93
2019-04-21T19:11:44.706Z,9.83
2019-04-21T19:14:29.179Z,6.90
2019-04-21T19:16:47.482Z,8.23
2019-04-21T19:21:50.016Z,16.53
2019-04-21T19:24:28.166Z,18.57
2019-04-21T19:26:55.881Z,20.57
2019-04-21T19:29:26.621Z,11.33
2019-04-21T19:31:49.736Z,10.97
2019-04-21T19:34:08.377Z,22.00
2019-04-21T19:36:30.795Z,17.60
2019-04-21T19:39:07.336Z,13.77
2019-04-21T19:41:42.989Z,7.17
2019-04-21T19:44:17.451Z,8.13
2019-04-21T19:46:42.416Z,6.90
2019-04-21T19:49:21.198Z,8.13
2019-04-21T19:51:40.606Z,12.87
2019-04-21T19:54:12.609Z,13.10
2019-04-21T19:56:30.295Z,9.97
2019-04-21T19:58:59.061Z,9.87
2019-04-21T20:01:27.709Z,10.20
2019-04-21T20:03:59.511Z,18.43
2019-04-21T20:06:42.086Z,9.97
2019-04-21T20:09:19.119Z,6.07
2019-04-21T20:11:41.821Z,14.80
2019-04-21T20:14:44.981Z,8.23
2019-04-21T20:16:46.657Z,9.67
2019-04-21T20:19:01.376Z,8.77
2019-04-21T20:21:28.945Z,8.50
2019-04-21T20:24:04.847Z,10.70
2019-04-21T20:26:30.429Z,9.83
2019-04-21T20:29:12.266Z,9.80
2019-04-21T20:31:45.970Z,11.27
2019-04-21T20:34:21.156Z,13.97
2019-04-21T20:36:47.693Z,12.73
2019-04-21T20:39:05.931Z,9.93
2019-04-21T20:41:40.581Z,9.77
2019-04-21T20:44:18.503Z,11.53
2019-04-21T20:46:45.426Z,14.73
2019-04-21T20:49:14.440Z,13.10
2019-04-21T20:51:45.177Z,24.70
2019-04-21T20:54:17.598Z,10.63
2019-04-21T20:56:55.123Z,14.83
2019-04-21T20:59:15.067Z,12.00
2019-04-21T21:01:43.376Z,12.70
2019-04-21T21:04:13.596Z,17.17
2019-04-21T21:06:46.885Z,7.73
2019-04-21T21:09:14.089Z,7.73
2019-04-21T21:11:56.565Z,8.30
2019-04-21T21:14:17.615Z,8.37
2019-04-21T21:16:50.585Z,8.63
2019-04-21T21:19:21.025Z,8.50
2019-04-21T21:21:44.228Z,9.80
2019-04-21T21:24:21.912Z,8.27
2019-04-21T21:26:50.081Z,6.20
2019-04-21T21:29:21.441Z,9.17
2019-04-21T21:31:48.915Z,7.77
2019-04-21T21:34:25.641Z,6.73
2019-04-21T21:36:47.756Z,7.10
2019-04-21T21:39:21.334Z,8.90
2019-04-21T21:41:40.637Z,8.37
2019-04-21T21:44:09.869Z,7.23
2019-04-21T21:46:48.325Z,7.90
2019-04-21T21:49:20.798Z,8.40
2019-04-21T21:51:42.919Z,7.37
2019-04-21T21:54:04.757Z,9.53
2019-04-21T21:56:34.327Z,18.03
2019-04-21T21:59:11.710Z,9.37
2019-04-21T22:01:39.854Z,8.57
2019-04-21T22:04:11.001Z,10.63
2019-04-21T22:06:43.349Z,10.27
2019-04-21T22:09:08.319Z,8.30
2019-04-21T22:11:38.058Z,9.97
2019-04-21T22:14:08.521Z,7.27
2019-04-21T22:16:49.408Z,8.73
2019-04-21T22:19:24.373Z,7.63
2019-04-21T22:21:53.571Z,6.80
2019-04-21T22:24:21.602Z,6.53
2019-04-21T22:26:37.406Z,7.73
2019-04-21T22:29:05.829Z,6.50
2019-04-21T22:31:37.862Z,7.07
2019-04-21T22:34:07.555Z,5.87
2019-04-21T22:36:47.215Z,5.10
2019-04-21T22:39:27.276Z,6.87
2019-04-21T22:41:43.732Z,6.17
2019-04-21T22:44:12.258Z,8.00
2019-04-21T22:46:52.935Z,6.30
2019-04-21T22:49:13.093Z,6.17
2019-04-21T22:51:44.849Z,8.77
2019-04-21T22:54:13.958Z,6.43
2019-04-21T22:56:52.853Z,7.20
2019-04-21T22:59:18.198Z,5.60
2019-04-21T23:01:47.433Z,6.63
2019-04-21T23:04:12.462Z,5.20
2019-04-21T23:06:42.671Z,6.30
2019-04-21T23:09:12.901Z,6.60
2019-04-21T23:11:47.033Z,7.37
2019-04-21T23:14:13.996Z,6.87
2019-04-21T23:16:45.307Z,6.40
2019-04-21T23:19:28.081Z,6.33
2019-04-21T23:21:56.277Z,7.17
2019-04-21T23:24:34.558Z,5.87
2019-04-21T23:26:57.467Z,9.17
2019-04-21T23:29:39.224Z,8.33
2019-04-21T23:32:01.913Z,6.47
2019-04-21T23:34:19.583Z,8.00
2019-04-21T23:36:53.085Z,6.37
2019-04-21T23:39:20.999Z,7.37
2019-04-21T23:41:49.100Z,7.77
2019-04-21T23:44:15.905Z,7.07
2019-04-21T23:46:44.436Z,8.83
2019-04-21T23:49:27.119Z,7.00
2019-04-21T23:51:50.892Z,8.00
2019-04-21T23:54:15.475Z,5.93
2019-04-21T23:56:47.354Z,6.17
2019-04-21T23:59:16.135Z,6.27
